TimeEDT,TemperatureF,Dew PointF,Humidity,Sea Level PressureIn,VisibilityMPH,Wind Direction,Wind SpeedMPH,Gust SpeedMPH,PrecipitationIn,Events,Conditions,WindDirDegrees,DateUTC
12:56 AM,48.9,19.9,32,29.95,10.0,West,6.9,-,N/A,,Clear,260,2012-11-02 04:56:00
1:56 AM,48.0,21.0,34,29.95,10.0,West,4.6,-,N/A,,Clear,260,2012-11-02 05:56:00
2:56 AM,48.9,21.9,35,29.95,10.0,WSW,9.2,-,N/A,,Clear,250,2012-11-02 06:56:00
3:56 AM,46.9,21.9,37,29.95,10.0,WSW,8.1,-,N/A,,Clear,250,2012-11-02 07:56:00
4:56 AM,46.0,24.1,42,29.94,10.0,WSW,5.8,-,N/A,,Mostly Cloudy,250,2012-11-02 08:56:00
5:56 AM,46.9,24.1,41,29.95,10.0,West,6.9,-,N/A,,Clear,260,2012-11-02 09:56:00
6:56 AM,44.1,26.1,49,29.96,10.0,SW,8.1,-,N/A,,Scattered Clouds,230,2012-11-02 10:56:00
7:56 AM,45.0,28.0,52,29.96,10.0,WSW,6.9,-,N/A,,Clear,240,2012-11-02 11:56:00
8:56 AM,46.9,28.9,50,29.97,10.0,WSW,8.1,-,N/A,,Clear,240,2012-11-02 12:56:00
9:06 AM,48.2,28.4,46,29.97,10.0,WSW,10.4,-,N/A,,Partly Cloudy,240,2012-11-02 13:06:00
9:56 AM,54.0,30.9,41,29.97,10.0,WSW,8.1,-,N/A,,Clear,250,2012-11-02 13:56:00
10:56 AM,60.1,34.0,38,29.96,10.0,WSW,11.5,-,N/A,,Clear,250,2012-11-02 14:56:00
11:56 AM,64.9,35.1,33,29.94,10.0,SW,13.8,18.4,N/A,,Clear,230,2012-11-02 15:56:00
12:56 PM,68.0,35.1,30,29.91,10.0,WSW,12.7,19.6,N/A,,Clear,250,2012-11-02 16:56:00
1:56 PM,70.0,36.0,29,29.88,10.0,WSW,13.8,20.7,N/A,,Clear,240,2012-11-02 17:56:00
2:56 PM,73.0,37.9,28,29.86,10.0,WSW,20.7,25.3,N/A,,Clear,240,2012-11-02 18:56:00
3:56 PM,73.9,39.0,28,29.86,10.0,WSW,11.5,21.9,N/A,,Clear,250,2012-11-02 19:56:00
4:56 PM,73.0,39.9,30,29.86,10.0,West,12.7,20.7,N/A,,Clear,270,2012-11-02 20:56:00
5:56 PM,71.1,42.1,35,29.86,10.0,WSW,10.4,18.4,N/A,,Clear,250,2012-11-02 21:56:00
6:56 PM,68.0,42.1,39,29.89,10.0,WSW,5.8,-,N/A,,Clear,250,2012-11-02 22:56:00
7:56 PM,64.0,42.1,45,29.92,10.0,West,5.8,-,N/A,,Clear,260,2012-11-02 23:56:00
8:56 PM,60.1,43.0,53,29.95,10.0,NW,3.5,-,N/A,,Clear,310,2012-11-03 00:56:00
9:56 PM,54.0,43.0,66,29.96,10.0,Calm,Calm,-,N/A,,Clear,0,2012-11-03 01:56:00
10:56 PM,51.1,43.0,74,29.98,10.0,Calm,Calm,-,N/A,,Clear,0,2012-11-03 02:56:00
11:56 PM,46.9,41.0,80,29.99,10.0,Calm,Calm,-,N/A,,Clear,0,2012-11-03 03:56:00